Time;durP1;ratioP1;P1;durP2;ratioP2;P2;SDS_P1;SDS_P2;PMS_P1;PMS_P2;Temp;Humidity;BMP_temperature;BMP_pressure;BME280_temperature;BME280_humidity;BME280_pressure;Samples;Min_cycle;Max_cycle;Signal;HPM_P1;HPM_P2
2022/02/16 00:01:32;;;;;;;;;;;;;;;22.01;25.29;98326.75;5074484;28;967;-75
2022/02/16 00:03:58;;;;;;;;;;;;;;;21.81;25.70;98323.97;5074747;28;1027;-75
2022/02/16 00:06:24;;;;;;;;;;;;;;;21.82;25.30;98315.06;5074041;28;1097;-75
2022/02/16 00:08:49;;;;;;;;;;;;;;;21.92;25.61;98312.41;5040549;28;1076;-75
2022/02/16 00:11:14;;;;;;;;;;;;;;;22.28;24.86;98315.25;5074132;28;1086;-75
2022/02/16 00:13:40;;;;;;;;;;;;;;;22.10;25.11;98312.78;5074192;28;1065;-75
2022/02/16 00:16:08;;;;;;;;;;;;;;;21.79;25.61;98315.91;5074117;28;1020;-74
2022/02/16 00:18:37;;;;;;;;;;;;;;;21.70;25.65;98315.72;5079757;28;1995;-74
2022/02/16 00:21:03;;;;;;;;;;;;;;;21.73;25.71;98312.00;5137264;27;907;-74
2022/02/16 00:23:29;;;;;;;;;;;;;;;21.73;25.56;98306.34;5137183;27;951;-75
2022/02/16 00:25:55;;;;;;;;;;;;;;;21.73;25.79;98305.56;5137161;27;919;-75
2022/02/16 00:28:21;;;;;;;;;;;;;;;21.67;25.71;98296.78;5137381;27;921;-75
2022/02/16 00:30:47;;;;;;;;;;;;;;;21.64;25.95;98302.50;5073466;28;1205;-75
2022/02/16 00:33:12;;;;;;;;;;;;;;;21.84;25.69;98301.22;5033288;28;1243;-75
2022/02/16 00:35:38;;;;;;;;;;;;;;;21.69;25.57;98297.13;5033640;28;912;-75
2022/02/16 00:38:04;;;;;;;;;;;;;;;21.67;25.76;98291.13;5033303;28;1917;-75
2022/02/16 00:40:29;;;;;;;;;;;;;;;21.62;25.67;98294.47;5033724;28;1079;-74
2022/02/16 00:42:55;;;;;;;;;;;;;;;21.59;25.69;98293.28;5033580;28;1037;-75
2022/02/16 00:45:21;;;;;;;;;;;;;;;21.58;25.79;98293.75;5053477;28;1666;-75
2022/02/16 00:47:47;;;;;;;;;;;;;;;22.05;25.27;98282.13;5013228;28;1792;-75
2022/02/16 00:50:13;;;;;;;;;;;;;;;22.31;24.59;98289.63;5013675;28;994;-75
2022/02/16 00:52:39;;;;;;;;;;;;;;;21.79;25.61;98281.94;5013141;28;979;-75
2022/02/16 00:55:06;;;;;;;;;;;;;;;21.44;25.27;98209.09;5013527;28;1247;-75
2022/02/16 00:57:32;;;;;;;;;;;;;;;21.77;25.58;98273.09;5013491;28;1922;-74
2022/02/16 00:59:58;;;;;;;;;;;;;;;22.04;25.09;98274.88;4993825;28;970;-75
2022/02/16 01:02:25;;;;;;;;;;;;;;;22.18;25.18;98271.75;4977715;28;1242;-75
2022/02/16 01:04:50;;;;;;;;;;;;;;;21.90;25.24;98263.88;4992458;28;992;-75
2022/02/16 01:07:16;;;;;;;;;;;;;;;21.75;25.42;98271.91;5013305;28;1015;-75
2022/02/16 01:09:41;;;;;;;;;;;;;;;21.77;25.29;98260.97;5028270;28;981;-75
2022/02/16 01:12:08;;;;;;;;;;;;;;;22.14;25.24;98271.03;4993739;28;1137;-74
2022/02/16 01:14:34;;;;;;;;;;;;;;;22.35;24.85;98267.66;4920023;29;1228;-75
2022/02/16 01:17:29;;;;;;;;;;;;;;;21.92;25.16;98261.44;4935678;29;1899;-74
2022/02/16 01:20:06;;;;;;;;;;;;;;;21.89;25.34;98262.28;4954880;29;1467;-74
2022/02/16 01:22:32;;;;;;;;;;;;;;;21.52;25.78;98256.66;4955063;29;1124;-74
2022/02/16 01:24:58;;;;;;;;;;;;;;;21.94;25.37;98253.28;4962313;28;1704;-75
2022/02/16 01:27:25;;;;;;;;;;;;;;;22.27;24.99;98249.22;4954801;29;1486;-75
2022/02/16 01:29:54;;;;;;;;;;;;;;;21.90;25.11;98249.72;4935354;29;1439;-75
2022/02/16 01:32:26;;;;;;;;;;;;;;;21.71;25.63;98246.53;4935563;29;1113;-74
2022/02/16 01:34:52;;;;;;;;;;;;;;;21.61;25.69;98247.56;4935624;29;1294;-74
2022/02/16 01:37:17;;;;;;;;;;;;;;;22.07;25.21;98242.81;4935547;29;1902;-75
2022/02/16 01:39:43;;;;;;;;;;;;;;;22.28;24.72;98239.50;4935664;29;964;-75
2022/02/16 01:42:13;;;;;;;;;;;;;;;21.98;24.88;98231.31;4954499;28;1255;-75
2022/02/16 01:44:42;;;;;;;;;;;;;;;21.70;25.25;98247.75;4954752;28;1239;-75
2022/02/16 01:47:07;;;;;;;;;;;;;;;21.72;25.64;98236.00;4954343;28;1443;-75
2022/02/16 01:49:36;;;;;;;;;;;;;;;21.99;25.29;98232.91;4939121;29;1222;-75
2022/02/16 01:52:02;;;;;;;;;;;;;;;22.14;24.67;98225.69;4954691;28;1543;-75
2022/02/16 01:54:33;;;;;;;;;;;;;;;21.81;25.30;98227.66;4944478;28;1507;-75
2022/02/16 01:56:58;;;;;;;;;;;;;;;21.63;25.50;98221.63;4916048;29;2051;-75
2022/02/16 01:59:31;;;;;;;;;;;;;;;21.71;25.66;98214.53;4951306;29;1250;-75
2022/02/16 02:02:15;;;;;;;;;;;;;;;21.94;25.11;98219.28;4935353;29;1090;-74
2022/02/16 02:04:42;;;;;;;;;;;;;;;22.14;24.94;98222.06;4937215;29;1208;-75
2022/02/16 02:07:11;;;;;;;;;;;;;;;21.75;25.29;98207.56;4939323;29;1646;-74
2022/02/16 02:09:36;;;;;;;;;;;;;;;21.59;25.25;98207.53;4977533;28;1151;-75
2022/02/16 02:12:02;;;;;;;;;;;;;;;21.63;25.57;98205.44;4978057;28;1379;-74
2022/02/16 02:14:32;;;;;;;;;;;;;;;22.08;24.92;98213.25;4996699;28;1415;-75
2022/02/16 02:17:05;;;;;;;;;;;;;;;22.25;24.73;98211.22;4996579;28;1906;-74
2022/02/16 02:19:31;;;;;;;;;;;;;;;21.82;24.84;98207.41;4980316;28;1659;-75
2022/02/16 02:22:00;;;;;;;;;;;;;;;21.67;25.19;98211.81;4977215;28;1123;-74
2022/02/16 02:24:26;;;;;;;;;;;;;;;21.70;25.53;98205.25;4961099;28;1256;-75
2022/02/16 02:26:51;;;;;;;;;;;;;;;22.06;24.89;98210.06;4960852;28;1407;-75
2022/02/16 02:29:17;;;;;;;;;;;;;;;22.31;24.46;98213.06;4938585;29;1069;-75
2022/02/16 02:31:53;;;;;;;;;;;;;;;21.87;25.07;98213.78;4909575;29;1478;-74
2022/02/16 02:34:18;;;;;;;;;;;;;;;21.53;25.23;98217.81;4929993;29;1026;-75
2022/02/16 02:36:44;;;;;;;;;;;;;;;21.80;25.02;98215.53;4919919;29;1119;-75
2022/02/16 02:39:10;;;;;;;;;;;;;;;22.17;24.62;98213.44;4945919;29;1914;-74
2022/02/16 02:41:35;;;;;;;;;;;;;;;22.34;24.26;98222.75;4938389;29;1320;-74
2022/02/16 02:44:01;;;;;;;;;;;;;;;22.02;24.48;98221.50;4938502;29;1142;-74
2022/02/16 02:46:28;;;;;;;;;;;;;;;21.66;25.29;98215.06;4938316;29;1101;-75
2022/02/16 02:48:57;;;;;;;;;;;;;;;21.62;25.37;98215.19;4938440;29;1571;-74
2022/02/16 02:51:23;;;;;;;;;;;;;;;21.81;25.03;98211.50;4911659;29;1181;-75
2022/02/16 02:53:50;;;;;;;;;;;;;;;22.27;24.48;98215.19;4900682;29;1207;-75
2022/02/16 02:56:18;;;;;;;;;;;;;;;22.17;24.68;98219.09;4919611;29;1315;-75
2022/02/16 02:58:43;;;;;;;;;;;;;;;21.78;24.96;98223.69;4968057;28;2001;-75
2022/02/16 03:01:09;;;;;;;;;;;;;;;21.54;25.37;98219.41;5007031;28;1465;-75
2022/02/16 03:03:39;;;;;;;;;;;;;;;21.89;25.22;98214.13;4979581;28;1231;-75
2022/02/16 03:06:07;;;;;;;;;;;;;;;22.09;24.99;98214.84;4979483;28;1027;-75
2022/02/16 03:08:33;;;;;;;;;;;;;;;22.26;24.33;98218.50;4996261;28;955;-75
2022/02/16 03:10:58;;;;;;;;;;;;;;;21.80;24.96;98215.53;5012173;28;980;-75
2022/02/16 03:13:24;;;;;;;;;;;;;;;21.66;25.21;98215.91;5031981;28;1201;-75
2022/02/16 03:15:57;;;;;;;;;;;;;;;21.64;25.66;98218.34;4998471;28;1272;-75
2022/02/16 03:18:24;;;;;;;;;;;;;;;21.96;25.04;98213.94;4976003;28;1969;-75
2022/02/16 03:20:50;;;;;;;;;;;;;;;22.21;24.38;98221.84;4975816;28;1011;-74
2022/02/16 03:23:16;;;;;;;;;;;;;;;21.98;24.37;98220.00;4975879;28;1014;-75
2022/02/16 03:25:41;;;;;;;;;;;;;;;21.74;24.98;98217.31;4976112;28;1224;-75
2022/02/16 03:28:07;;;;;;;;;;;;;;;21.81;25.24;98217.16;4971994;28;1153;-75
2022/02/16 03:30:33;;;;;;;;;;;;;;;22.15;24.75;98217.97;4956599;29;1013;-75
2022/02/16 03:33:03;;;;;;;;;;;;;;;22.24;24.56;98216.09;4972615;28;1413;-74
2022/02/16 03:35:28;;;;;;;;;;;;;;;21.87;24.76;98208.91;4976694;28;1132;-75
2022/02/16 03:37:54;;;;;;;;;;;;;;;21.69;25.00;98209.34;4995390;28;1918;-75
2022/02/16 03:40:20;;;;;;;;;;;;;;;21.63;25.65;98211.09;4995124;28;999;-75
2022/02/16 03:42:45;;;;;;;;;;;;;;;22.06;24.68;98210.06;4995555;28;1105;-75
2022/02/16 03:45:10;;;;;;;;;;;;;;;22.12;24.73;98213.97;4995094;28;987;-74
2022/02/16 03:47:49;;;;;;;;;;;;;;;21.68;24.87;98213.41;4978860;28;1406;-75
2022/02/16 03:50:15;;;;;;;;;;;;;;;21.63;25.14;98199.78;4940240;29;1135;-74
2022/02/16 03:52:41;;;;;;;;;;;;;;;21.64;25.50;98201.38;4999111;28;1131;-75
2022/02/16 03:55:06;;;;;;;;;;;;;;;21.94;24.99;98190.94;5034532;28;1142;-75
2022/02/16 03:57:32;;;;;;;;;;;;;;;22.14;24.80;98197.34;5017382;28;1979;-75
2022/02/16 03:59:58;;;;;;;;;;;;;;;21.93;24.67;98197.84;5017768;28;1096;-75
2022/02/16 04:02:39;;;;;;;;;;;;;;;21.59;25.25;98199.06;5034207;28;1036;-75
2022/02/16 04:05:05;;;;;;;;;;;;;;;21.61;25.24;98195.81;5034290;28;1237;-75
2022/02/16 04:07:31;;;;;;;;;;;;;;;21.91;24.80;98214.47;5014290;28;1111;-75
2022/02/16 04:09:56;;;;;;;;;;;;;;;22.14;24.59;98211.50;4994679;28;1298;-75
2022/02/16 04:12:22;;;;;;;;;;;;;;;21.93;24.69;98195.03;4975152;28;1076;-75
2022/02/16 04:14:47;;;;;;;;;;;;;;;21.82;24.73;98196.09;4975327;28;1121;-74
2022/02/16 04:17:13;;;;;;;;;;;;;;;21.57;25.21;98195.88;4920226;29;1968;-75
2022/02/16 04:19:39;;;;;;;;;;;;;;;21.88;25.14;98195.56;4917336;29;1072;-75
2022/02/16 04:22:04;;;;;;;;;;;;;;;22.20;24.36;98197.59;4936242;29;1109;-75
2022/02/16 04:24:29;;;;;;;;;;;;;;;22.32;24.30;98197.66;4936801;29;1217;-75
2022/02/16 04:26:55;;;;;;;;;;;;;;;21.81;24.67;98200.16;4916748;29;1051;-75
2022/02/16 04:29:23;;;;;;;;;;;;;;;21.54;24.92;98196.75;4949592;28;1183;-75
2022/02/16 04:31:48;;;;;;;;;;;;;;;21.56;25.52;98192.25;4955302;28;1065;-75
2022/02/16 04:34:13;;;;;;;;;;;;;;;21.98;24.94;98191.66;4974762;28;1140;-75
2022/02/16 04:36:41;;;;;;;;;;;;;;;22.08;24.53;98190.59;4936301;29;1148;-76
2022/02/16 04:39:07;;;;;;;;;;;;;;;22.01;24.56;98196.41;4936116;29;1903;-75
2022/02/16 04:41:34;;;;;;;;;;;;;;;21.74;25.00;98194.66;4937719;28;1265;-75
2022/02/16 04:44:06;;;;;;;;;;;;;;;21.57;25.13;98198.72;4935914;29;1226;-75
2022/02/16 04:46:32;;;;;;;;;;;;;;;21.84;24.90;98199.25;4936300;29;1227;-75
2022/02/16 04:48:59;;;;;;;;;;;;;;;22.05;24.67;98203.59;4951218;28;1165;-74
2022/02/16 04:51:27;;;;;;;;;;;;;;;22.01;24.61;98202.88;4974479;28;1388;-75
2022/02/16 04:53:52;;;;;;;;;;;;;;;21.62;24.99;98203.06;4938964;29;1135;-75
2022/02/16 04:56:18;;;;;;;;;;;;;;;21.61;25.22;98202.25;4936052;29;1016;-75
2022/02/16 04:58:44;;;;;;;;;;;;;;;21.71;25.36;98195.53;4935993;29;1911;-74
2022/02/16 05:01:10;;;;;;;;;;;;;;;22.15;24.70;98196.09;4936225;28;1123;-75
2022/02/16 05:03:37;;;;;;;;;;;;;;;22.34;24.04;98203.69;4968220;28;1271;-75
2022/02/16 05:06:03;;;;;;;;;;;;;;;21.91;24.50;98214.47;5006608;28;1285;-75
2022/02/16 05:08:29;;;;;;;;;;;;;;;21.82;24.80;98212.28;5029908;28;1129;-75
2022/02/16 05:10:55;;;;;;;;;;;;;;;21.67;25.06;98214.66;5013246;28;1350;-75
2022/02/16 05:13:36;;;;;;;;;;;;;;;22.08;24.73;98219.72;5013538;28;1229;-75
2022/02/16 05:16:02;;;;;;;;;;;;;;;22.30;24.46;98225.66;5031900;28;1443;-75
2022/02/16 05:18:28;;;;;;;;;;;;;;;21.94;24.65;98224.94;4999940;28;1907;-75
2022/02/16 05:20:56;;;;;;;;;;;;;;;21.79;24.47;98225.28;5000874;28;998;-74
2022/02/16 05:23:22;;;;;;;;;;;;;;;21.63;25.03;98228.09;5017828;28;946;-75
2022/02/16 05:25:54;;;;;;;;;;;;;;;21.95;24.71;98232.19;5069510;28;1262;-74
2022/02/16 05:28:20;;;;;;;;;;;;;;;22.14;24.53;98228.50;5073385;28;1021;-74
2022/02/16 05:30:46;;;;;;;;;;;;;;;22.13;24.18;98226.94;5013038;28;1012;-75
2022/02/16 05:33:11;;;;;;;;;;;;;;;21.87;24.84;98230.78;4997121;28;1152;-74
2022/02/16 05:35:37;;;;;;;;;;;;;;;21.73;24.59;98237.56;4993553;28;1190;-75
2022/02/16 05:38:03;;;;;;;;;;;;;;;21.93;25.05;98240.34;4993459;28;1914;-75
2022/02/16 05:40:31;;;;;;;;;;;;;;;22.19;24.56;98242.16;4980440;28;1120;-75
2022/02/16 05:42:57;;;;;;;;;;;;;;;22.35;24.23;98244.19;5015311;28;1120;-75
2022/02/16 05:45:25;;;;;;;;;;;;;;;21.82;25.02;98240.59;5017143;28;1332;-75
2022/02/16 05:47:51;;;;;;;;;;;;;;;21.74;24.93;98237.13;5016998;28;1153;-76
2022/02/16 05:50:17;;;;;;;;;;;;;;;21.90;24.91;98244.06;4977771;28;1101;-75
2022/02/16 05:52:45;;;;;;;;;;;;;;;22.16;24.55;98245.84;4977718;28;1080;-75
2022/02/16 05:55:11;;;;;;;;;;;;;;;22.23;24.35;98242.06;4997406;28;1230;-75
2022/02/16 05:57:37;;;;;;;;;;;;;;;21.84;24.85;98232.44;4927049;29;1903;-74
2022/02/16 06:00:04;;;;;;;;;;;;;;;21.65;25.06;98236.13;4923463;29;1076;-75
2022/02/16 06:02:37;;;;;;;;;;;;;;;21.53;25.05;98240.47;4938956;29;1082;-75
2022/02/16 06:05:04;;;;;;;;;;;;;;;21.90;24.81;98241.22;4923214;29;1182;-74
2022/02/16 06:07:30;;;;;;;;;;;;;;;22.08;24.60;98238.75;4971767;28;1391;-75
2022/02/16 06:09:55;;;;;;;;;;;;;;;22.30;23.94;98242.66;4977597;28;1096;-76
2022/02/16 06:12:21;;;;;;;;;;;;;;;22.16;24.45;98233.72;4961561;28;1571;-75
2022/02/16 06:14:47;;;;;;;;;;;;;;;21.68;24.93;98235.28;4977567;28;1236;-75
2022/02/16 06:17:12;;;;;;;;;;;;;;;21.61;25.17;98241.91;4996818;28;1902;-75
2022/02/16 06:19:38;;;;;;;;;;;;;;;21.67;25.29;98245.00;4996996;28;968;-74
2022/02/16 06:22:03;;;;;;;;;;;;;;;21.99;24.47;98238.56;4964062;28;1071;-75
2022/02/16 06:24:30;;;;;;;;;;;;;;;22.23;24.28;98234.38;5016341;28;1255;-75
2022/02/16 06:26:56;;;;;;;;;;;;;;;21.89;24.83;98229.09;4995993;28;1240;-75
2022/02/16 06:29:21;;;;;;;;;;;;;;;21.65;25.09;98228.44;4957797;28;1480;-75
2022/02/16 06:32:05;;;;;;;;;;;;;;;21.75;25.09;98223.75;4957899;28;996;-74
2022/02/16 06:34:31;;;;;;;;;;;;;;;22.07;24.81;98222.97;4968237;28;1341;-74
2022/02/16 06:36:57;;;;;;;;;;;;;;;22.27;24.28;98226.53;4976779;28;1752;-75
2022/02/16 06:39:22;;;;;;;;;;;;;;;21.81;24.66;98217.16;4938236;29;1907;-74
2022/02/16 06:41:48;;;;;;;;;;;;;;;21.66;25.04;98218.72;4958125;28;1222;-74
2022/02/16 06:44:13;;;;;;;;;;;;;;;21.96;24.83;98216.78;4996244;28;1185;-74
2022/02/16 06:46:39;;;;;;;;;;;;;;;22.09;24.68;98221.31;4938307;29;1171;-74
2022/02/16 06:49:05;;;;;;;;;;;;;;;22.06;24.67;98219.34;4938137;29;1106;-75
2022/02/16 06:51:33;;;;;;;;;;;;;;;21.74;25.21;98222.97;4937683;29;1292;-74
2022/02/16 06:54:00;;;;;;;;;;;;;;;21.54;25.42;98219.41;4938622;29;1090;-75
2022/02/16 06:56:28;;;;;;;;;;;;;;;21.62;25.33;98215.19;4938426;29;1105;-74
2022/02/16 06:59:13;;;;;;;;;;;;;;;21.98;24.70;98220.78;4957518;28;1969;-74
2022/02/16 07:01:41;;;;;;;;;;;;;;;22.26;24.61;98219.28;4976716;28;979;-68
2022/02/16 07:04:06;;;;;;;;;;;;;;;22.97;23.73;98222.25;4976081;28;1208;-69
2022/02/16 07:06:33;;;;;;;;;;;;;;;23.52;23.25;98216.56;4994386;28;1379;-69
2022/02/16 07:09:06;;;;;;;;;;;;;;;23.50;22.98;98219.06;5017864;28;1058;-75
2022/02/16 07:11:31;;;;;;;;;;;;;;;23.55;23.16;98221.34;5018775;28;1230;-76
2022/02/16 07:13:57;;;;;;;;;;;;;;;23.43;23.25;98217.25;5018689;28;1039;-79
2022/02/16 07:16:22;;;;;;;;;;;;;;;23.67;23.06;98209.22;5007812;28;1115;-79
2022/02/16 07:18:49;;;;;;;;;;;;;;;23.80;23.17;98207.19;5060354;28;1988;-80
2022/02/16 07:21:23;;;;;;;;;;;;;;;23.85;23.07;98212.28;5091416;28;1098;-76
2022/02/16 07:23:52;;;;;;;;;;;;;;;23.86;23.14;98208.19;5107943;27;1244;-79
2022/02/16 07:26:19;;;;;;;;;;;;;;;23.96;23.17;98211.16;5125012;27;1105;-68
2022/02/16 07:28:45;;;;;;;;;;;;;;;24.01;23.21;98208.53;5121827;27;1085;-78
2022/02/16 07:31:11;;;;;;;;;;;;;;;23.99;23.13;98204.56;5122775;27;901;-80
2022/02/16 07:33:36;;;;;;;;;;;;;;;24.13;23.02;98204.06;5125394;27;1224;-78
2022/02/16 07:36:02;;;;;;;;;;;;;;;24.10;23.48;98205.00;5095065;28;1064;-70
2022/02/16 07:38:28;;;;;;;;;;;;;;;24.40;22.90;98207.25;5077799;28;1976;-71
2022/02/16 07:40:57;;;;;;;;;;;;;;;24.55;23.00;98203.88;5078035;28;1092;-70
2022/02/16 07:43:24;;;;;;;;;;;;;;;24.68;22.73;98198.94;5077854;28;1220;-71
2022/02/16 07:46:09;;;;;;;;;;;;;;;24.33;23.47;98196.06;5094663;28;1046;-71
2022/02/16 07:48:38;;;;;;;;;;;;;;;24.72;22.95;98199.63;5077551;28;1477;-70
2022/02/16 07:51:15;;;;;;;;;;;;;;;24.89;23.06;98195.31;5077734;28;1082;-69
2022/02/16 07:53:59;;;;;;;;;;;;;;;24.94;22.98;98200.41;5094462;28;1016;-70
2022/02/16 07:56:25;;;;;;;;;;;;;;;24.88;23.07;98187.25;5077735;28;1386;-69
2022/02/16 07:58:50;;;;;;;;;;;;;;;24.92;23.18;98185.84;5074099;28;1925;-68
2022/02/16 08:01:16;;;;;;;;;;;;;;;24.77;23.39;98190.47;5053379;28;1062;-68
2022/02/16 08:03:43;;;;;;;;;;;;;;;24.82;23.25;98198.44;5053504;28;994;-68
2022/02/16 08:06:10;;;;;;;;;;;;;;;24.79;23.42;98192.84;4991214;28;1381;-67
2022/02/16 08:08:36;;;;;;;;;;;;;;;24.91;22.89;98195.66;5057610;28;1187;-67
2022/02/16 08:11:01;;;;;;;;;;;;;;;25.02;22.94;98200.13;5057371;28;1232;-68
2022/02/16 08:13:30;;;;;;;;;;;;;;;24.97;22.79;98192.22;5057264;28;1603;-67
2022/02/16 08:16:10;;;;;;;;;;;;;;;24.88;23.07;98204.31;5057027;28;1368;-68
2022/02/16 08:18:49;;;;;;;;;;;;;;;24.67;23.15;98208.75;5056582;28;1992;-68
2022/02/16 08:21:17;;;;;;;;;;;;;;;24.30;23.79;98202.69;5040519;28;1326;-67
2022/02/16 08:23:46;;;;;;;;;;;;;;;24.62;23.37;98197.94;5057084;28;1058;-67
2022/02/16 08:26:11;;;;;;;;;;;;;;;24.66;23.48;98201.47;5073628;28;992;-67
2022/02/16 08:28:37;;;;;;;;;;;;;;;24.93;23.02;98178.09;5057357;28;1072;-68
2022/02/16 08:31:03;;;;;;;;;;;;;;;25.23;22.58;98182.28;5056790;28;1160;-67
2022/02/16 08:33:54;;;;;;;;;;;;;;;24.86;23.08;98182.03;5069131;28;1044;-67
2022/02/16 08:36:21;;;;;;;;;;;;;;;24.62;23.16;98183.72;5056517;28;1417;-68
2022/02/16 08:38:47;;;;;;;;;;;;;;;24.84;22.86;98187.38;5107395;27;1892;-69
2022/02/16 08:41:13;;;;;;;;;;;;;;;24.89;23.00;98175.38;5137106;27;937;-69
2022/02/16 08:43:38;;;;;;;;;;;;;;;24.87;23.05;98186.44;5137001;27;1060;-68
2022/02/16 08:46:04;;;;;;;;;;;;;;;24.76;23.06;98183.22;5137232;27;996;-69
2022/02/16 08:48:29;;;;;;;;;;;;;;;24.94;22.82;98176.84;5137199;27;957;-69
2022/02/16 08:50:55;;;;;;;;;;;;;;;24.85;22.79;98177.56;5137205;27;891;-72
2022/02/16 08:53:22;;;;;;;;;;;;;;;25.22;22.52;98174.97;5073209;28;1086;-73
2022/02/16 08:55:48;;;;;;;;;;;;;;;25.07;22.83;98163.38;5072963;28;1052;-72
2022/02/16 08:58:14;;;;;;;;;;;;;;;25.08;22.89;98170.66;5073070;28;1905;-74
2022/02/16 09:00:39;;;;;;;;;;;;;;;25.02;22.86;98168.81;5073709;28;1125;-71
2022/02/16 09:03:05;;;;;;;;;;;;;;;25.27;22.70;98177.22;5073427;28;1019;-73
2022/02/16 09:05:30;;;;;;;;;;;;;;;25.14;22.68;98165.16;5073488;28;961;-72
2022/02/16 09:07:56;;;;;;;;;;;;;;;25.08;22.95;98175.56;5073553;28;1033;-72
2022/02/16 09:10:21;;;;;;;;;;;;;;;24.37;23.59;98168.31;5039322;28;1124;-72
2022/02/16 09:12:46;;;;;;;;;;;;;;;23.56;24.68;98171.81;5072594;28;951;-72
2022/02/16 09:15:12;;;;;;;;;;;;;;;23.51;24.92;98172.38;5073016;28;1010;-74
2022/02/16 09:17:38;;;;;;;;;;;;;;;23.67;24.30;98172.28;5072933;28;1917;-73
2022/02/16 09:20:04;;;;;;;;;;;;;;;23.47;24.67;98168.88;5052842;28;1016;-75
2022/02/16 09:22:29;;;;;;;;;;;;;;;23.15;24.86;98159.28;5013365;28;996;-75
2022/02/16 09:24:55;;;;;;;;;;;;;;;22.95;25.07;98161.50;5013415;28;1100;-75
2022/02/16 09:27:20;;;;;;;;;;;;;;;22.87;25.30;98170.22;5057382;28;1015;-75
2022/02/16 09:29:46;;;;;;;;;;;;;;;22.80;25.69;98156.25;5072995;28;1175;-75
2022/02/16 09:32:12;;;;;;;;;;;;;;;22.64;25.71;98153.47;5032843;28;1071;-75
2022/02/16 09:34:37;;;;;;;;;;;;;;;22.67;26.11;98152.56;5033375;28;1115;-76
2022/02/16 09:37:03;;;;;;;;;;;;;;;22.58;26.09;98161.72;5016314;28;1145;-75
2022/02/16 09:39:28;;;;;;;;;;;;;;;22.61;25.95;98154.34;5032935;28;1906;-75
2022/02/16 09:41:55;;;;;;;;;;;;;;;22.49;26.19;98152.28;5012739;28;982;-75
2022/02/16 09:44:44;;;;;;;;;;;;;;;22.43;26.41;98149.16;4996527;28;1101;-75
2022/02/16 09:47:09;;;;;;;;;;;;;;;22.49;26.19;98141.72;5012768;28;910;-76
2022/02/16 09:49:36;;;;;;;;;;;;;;;22.40;26.31;98140.78;5013170;28;1060;-75
2022/02/16 09:52:01;;;;;;;;;;;;;;;22.36;26.39;98138.84;5012650;28;1251;-75
2022/02/16 09:54:27;;;;;;;;;;;;;;;22.31;26.26;98136.53;5013154;28;962;-75
2022/02/16 09:56:52;;;;;;;;;;;;;;;22.32;26.38;98126.00;5013015;28;1003;-75
2022/02/16 09:59:17;;;;;;;;;;;;;;;22.16;26.55;98126.81;5022418;28;1973;-75
2022/02/16 10:01:51;;;;;;;;;;;;;;;22.24;26.21;98108.41;5052340;28;1016;-75
2022/02/16 10:04:17;;;;;;;;;;;;;;;22.09;26.50;98110.78;5035829;28;995;-75
2022/02/16 10:06:44;;;;;;;;;;;;;;;22.08;26.53;98106.38;5052785;28;908;-75
2022/02/16 10:09:22;;;;;;;;;;;;;;;22.06;26.32;98103.16;5024400;28;1063;-76
2022/02/16 10:11:57;;;;;;;;;;;;;;;22.00;26.45;98104.16;5052381;28;966;-75
2022/02/16 10:14:23;;;;;;;;;;;;;;;22.03;26.23;98092.75;5051705;28;2124;-76
2022/02/16 10:16:48;;;;;;;;;;;;;;;22.08;26.11;98091.41;5052235;28;1385;-75
2022/02/16 10:19:14;;;;;;;;;;;;;;;22.01;26.21;98089.53;5052648;28;1998;-75
2022/02/16 10:21:57;;;;;;;;;;;;;;;22.01;25.96;98085.91;5052709;28;1002;-75
2022/02/16 10:24:22;;;;;;;;;;;;;;;22.00;26.24;98092.84;5052605;28;988;-75
2022/02/16 10:26:49;;;;;;;;;;;;;;;22.02;26.14;98085.50;5055841;28;926;-76
2022/02/16 10:29:21;;;;;;;;;;;;;;;21.79;26.46;98083.66;5063971;28;1034;-75
2022/02/16 10:31:46;;;;;;;;;;;;;;;21.84;26.30;98074.63;5075992;28;980;-76
2022/02/16 10:34:12;;;;;;;;;;;;;;;21.79;26.37;98072.31;5076049;28;1011;-75
2022/02/16 10:36:37;;;;;;;;;;;;;;;21.78;26.17;98075.63;5076216;28;957;-76
2022/02/16 10:39:06;;;;;;;;;;;;;;;21.81;26.11;98064.19;5077860;28;1981;-75
2022/02/16 10:41:42;;;;;;;;;;;;;;;21.89;25.96;98064.00;5118044;28;943;-75
2022/02/16 10:44:15;;;;;;;;;;;;;;;21.82;26.18;98054.44;5118671;28;910;-75
2022/02/16 10:46:42;;;;;;;;;;;;;;;21.74;26.24;98061.53;5118629;28;931;-75
2022/02/16 10:49:11;;;;;;;;;;;;;;;21.76;26.17;98056.25;5118477;28;914;-75
2022/02/16 10:51:36;;;;;;;;;;;;;;;22.02;25.71;98045.00;5082875;28;1148;-75
2022/02/16 10:54:18;;;;;;;;;;;;;;;22.29;25.31;98053.22;5118689;28;878;-76
2022/02/16 10:56:44;;;;;;;;;;;;;;;21.78;25.78;98039.59;5117584;28;947;-75
2022/02/16 10:59:09;;;;;;;;;;;;;;;21.75;26.13;98029.13;5118415;28;1910;-75
2022/02/16 11:01:35;;;;;;;;;;;;;;;21.53;26.39;98028.13;5118847;28;971;-76
2022/02/16 11:04:05;;;;;;;;;;;;;;;21.77;25.92;98023.84;5118630;28;929;-75
2022/02/16 11:06:30;;;;;;;;;;;;;;;21.79;26.14;98007.19;5118795;28;951;-76
2022/02/16 11:08:56;;;;;;;;;;;;;;;22.21;25.35;98012.91;5117209;28;1219;-76
2022/02/16 11:11:22;;;;;;;;;;;;;;;22.17;25.12;98012.22;5095243;28;931;-76
2022/02/16 11:13:47;;;;;;;;;;;;;;;21.94;25.56;98009.63;5095772;28;1018;-76
2022/02/16 11:16:13;;;;;;;;;;;;;;;21.71;25.87;98008.63;5054949;28;1065;-76
2022/02/16 11:18:47;;;;;;;;;;;;;;;21.76;25.90;97998.78;5014955;28;1910;-76
2022/02/16 11:21:14;;;;;;;;;;;;;;;22.34;24.96;97999.59;5015408;28;957;-76
2022/02/16 11:23:42;;;;;;;;;;;;;;;22.26;25.14;97995.38;5015537;28;915;-76
2022/02/16 11:26:26;;;;;;;;;;;;;;;21.90;25.46;97980.59;5015333;28;1024;-75
2022/02/16 11:28:52;;;;;;;;;;;;;;;21.88;25.39;97983.09;5015426;28;998;-76
2022/02/16 11:31:28;;;;;;;;;;;;;;;21.82;25.43;97980.03;5015266;28;1009;-75
2022/02/16 11:34:11;;;;;;;;;;;;;;;22.06;25.39;97977.69;5015303;28;938;-76
2022/02/16 11:37:06;;;;;;;;;;;;;;;22.17;25.23;97983.88;5014793;28;1101;-75
2022/02/16 11:39:43;;;;;;;;;;;;;;;21.82;25.47;97972.31;4995628;28;1915;-76
2022/02/16 11:42:12;;;;;;;;;;;;;;;21.71;25.83;97974.66;4995605;28;988;-76
2022/02/16 11:45:02;;;;;;;;;;;;;;;21.55;25.78;97966.16;4995159;28;1047;-76
2022/02/16 11:47:36;;;;;;;;;;;;;;;21.62;25.95;97954.66;4960184;28;1320;-76
2022/02/16 11:50:07;;;;;;;;;;;;;;;21.91;25.37;97960.31;4988608;28;1051;-76
2022/02/16 11:52:34;;;;;;;;;;;;;;;22.27;25.19;97959.31;4995154;28;1035;-75
2022/02/16 11:54:59;;;;;;;;;;;;;;;21.98;25.02;97965.78;4979212;28;983;-76
2022/02/16 11:57:32;;;;;;;;;;;;;;;21.69;25.59;97960.13;4979207;28;1906;-76
2022/02/16 11:59:58;;;;;;;;;;;;;;;21.64;25.48;97957.03;4994970;28;911;-76
2022/02/16 12:02:23;;;;;;;;;;;;;;;21.91;25.66;97956.69;4995019;28;990;-74
2022/02/16 12:04:54;;;;;;;;;;;;;;;22.23;25.06;97958.63;4995044;28;1132;-78
2022/02/16 12:07:32;;;;;;;;;;;;;;;22.58;24.72;97951.84;4980015;28;971;-76
2022/02/16 12:10:15;;;;;;;;;;;;;;;22.50;24.60;97949.72;4995516;28;1170;-72
2022/02/16 12:12:41;;;;;;;;;;;;;;;22.57;24.92;97940.97;4994752;28;1048;-71
2022/02/16 12:15:07;;;;;;;;;;;;;;;22.83;24.52;97945.38;5004215;28;1050;-71
2022/02/16 12:17:33;;;;;;;;;;;;;;;23.01;24.50;97944.84;5020574;28;1913;-71
2022/02/16 12:20:00;;;;;;;;;;;;;;;23.05;24.34;97941.88;5054149;28;1046;-71
2022/02/16 12:22:26;;;;;;;;;;;;;;;22.88;24.94;97944.84;5054030;28;1013;-71
2022/02/16 12:24:51;;;;;;;;;;;;;;;22.95;24.72;97940.19;5095968;28;918;-71
2022/02/16 12:27:19;;;;;;;;;;;;;;;22.95;24.92;97934.50;5117295;28;960;-78
2022/02/16 12:29:44;;;;;;;;;;;;;;;22.80;24.93;97923.63;5117481;28;1033;-75
2022/02/16 12:32:10;;;;;;;;;;;;;;;22.83;24.85;97916.22;5093833;28;1377;-73
2022/02/16 12:34:35;;;;;;;;;;;;;;;22.97;24.81;97909.31;5096230;28;1083;-75
2022/02/16 12:37:00;;;;;;;;;;;;;;;22.85;25.36;97919.41;5102223;28;975;-74
2022/02/16 12:39:26;;;;;;;;;;;;;;;22.94;24.91;97907.38;5099806;28;1905;-74
2022/02/16 12:41:52;;;;;;;;;;;;;;;23.03;24.84;97907.50;5100651;28;1091;-73
2022/02/16 12:44:19;;;;;;;;;;;;;;;23.06;24.97;97901.72;5100805;28;949;-75
2022/02/16 12:46:47;;;;;;;;;;;;;;;23.12;25.04;97907.59;5099459;28;1011;-75
2022/02/16 12:49:13;;;;;;;;;;;;;;;23.10;24.81;97901.56;5097838;28;952;-72
2022/02/16 12:51:40;;;;;;;;;;;;;;;23.21;24.65;97906.88;5059841;28;1026;-72
2022/02/16 12:54:06;;;;;;;;;;;;;;;23.20;24.56;97897.56;5093713;28;1027;-72
2022/02/16 12:56:32;;;;;;;;;;;;;;;23.31;24.56;97895.16;5060166;28;987;-72
2022/02/16 12:58:58;;;;;;;;;;;;;;;23.13;24.99;97897.81;5093691;28;1985;-72
2022/02/16 13:01:30;;;;;;;;;;;;;;;23.28;24.76;97887.56;5093391;28;952;-74
2022/02/16 13:04:03;;;;;;;;;;;;;;;23.36;24.58;97891.75;5111784;28;1219;-72